createdAt,value
2023-01-13T00:04:38.827Z,8.2
2023-01-13T00:09:38.824Z,8.0
2023-01-13T00:14:38.806Z,8.1
2023-01-13T00:19:38.804Z,7.9
2023-01-13T00:24:38.808Z,7.9
2023-01-13T00:29:38.819Z,7.9
2023-01-13T00:34:38.816Z,7.7
2023-01-13T00:39:38.834Z,7.6
2023-01-13T00:44:38.823Z,7.5
2023-01-13T00:49:38.827Z,7.3
2023-01-13T00:54:38.826Z,7.3
2023-01-13T00:59:38.836Z,7.2
2023-01-13T01:04:38.831Z,7.2
2023-01-13T01:09:38.859Z,7.2
2023-01-13T01:14:38.839Z,7.1
2023-01-13T01:19:38.871Z,7.1
2023-01-13T01:24:38.848Z,7.1
2023-01-13T01:29:38.871Z,7.2
2023-01-13T01:34:38.848Z,7.2
2023-01-13T01:39:38.876Z,7.2
2023-01-13T01:44:38.860Z,7.2
2023-01-13T01:49:38.868Z,7.2
2023-01-13T01:54:38.866Z,7.2
2023-01-13T01:59:38.866Z,7.2
2023-01-13T02:04:38.869Z,7.1
2023-01-13T02:09:38.887Z,7.0
2023-01-13T02:14:38.888Z,7.1
2023-01-13T02:19:38.893Z,7.1
2023-01-13T02:24:38.887Z,7.1
2023-01-13T02:29:38.896Z,7.1
2023-01-13T02:34:38.886Z,7.2
2023-01-13T02:39:38.923Z,7.1
2023-01-13T02:44:38.884Z,7.0
2023-01-13T02:49:38.909Z,7.0
2023-01-13T02:54:38.902Z,7.0
2023-01-13T02:59:38.888Z,7.0
2023-01-13T03:04:38.874Z,7.1
2023-01-13T03:09:38.905Z,7.1
2023-01-13T03:14:38.882Z,7.0
2023-01-13T03:19:38.880Z,7.1
2023-01-13T03:24:38.896Z,7.0
2023-01-13T03:29:38.903Z,7.1
2023-01-13T03:34:38.896Z,7.1
2023-01-13T03:39:38.918Z,7.1
2023-01-13T03:44:38.912Z,7.1
2023-01-13T03:49:38.907Z,7.2
2023-01-13T03:54:38.904Z,7.1
2023-01-13T03:59:38.927Z,7.2
2023-01-13T04:04:38.926Z,7.3
2023-01-13T04:06:02.442Z,7.3
2023-01-13T04:09:38.937Z,7.3
2023-01-13T04:14:38.909Z,7.3
2023-01-13T04:19:38.924Z,7.1
2023-01-13T04:24:38.919Z,7.2
2023-01-13T04:29:38.937Z,7.1
2023-01-13T04:34:38.931Z,7.1
2023-01-13T04:39:38.943Z,7.1
2023-01-13T04:44:38.937Z,7.0
2023-01-13T04:49:38.946Z,6.9
2023-01-13T04:54:38.943Z,6.9
2023-01-13T04:59:38.959Z,6.9
2023-01-13T05:04:39.037Z,6.8
2023-01-13T05:09:38.966Z,6.8
2023-01-13T05:14:38.950Z,6.8
2023-01-13T05:19:38.955Z,6.7
2023-01-13T05:24:38.954Z,6.6
2023-01-13T05:29:38.977Z,6.5
2023-01-13T05:34:38.969Z,6.6
2023-01-13T05:39:38.993Z,6.5
2023-01-13T05:44:38.977Z,6.5
2023-01-13T05:49:41.476Z,6.6
2023-01-13T05:54:38.977Z,6.6
2023-01-13T05:59:39.001Z,6.8
2023-01-13T06:04:39.064Z,6.8
2023-01-13T06:09:39.010Z,6.9
2023-01-13T06:14:38.977Z,6.9
2023-01-13T06:19:38.997Z,6.9
2023-01-13T06:24:39.006Z,6.8
2023-01-13T06:29:39.001Z,6.8
2023-01-13T06:34:39.006Z,6.8
2023-01-13T06:39:39.029Z,6.9
2023-01-13T06:44:39.006Z,7.0
2023-01-13T06:49:39.016Z,7.0
2023-01-13T06:54:39.008Z,7.0
2023-01-13T06:59:39.014Z,6.9
2023-01-13T07:04:39.025Z,7.0
2023-01-13T07:09:39.049Z,7.0
2023-01-13T07:14:39.024Z,7.0
2023-01-13T07:19:39.028Z,7.1
2023-01-13T07:24:39.045Z,7.1
2023-01-13T07:29:39.039Z,7.2
2023-01-13T07:34:39.027Z,7.2
2023-01-13T07:39:39.061Z,7.2
2023-01-13T07:44:39.032Z,7.2
2023-01-13T07:49:39.044Z,7.2
2023-01-13T07:54:40.730Z,7.3
2023-01-13T07:59:39.063Z,7.3
2023-01-13T08:04:39.054Z,7.2
2023-01-13T08:09:39.067Z,7.2
2023-01-13T08:14:39.053Z,7.1
2023-01-13T08:19:39.063Z,7.1
2023-01-13T08:24:39.061Z,7.1
2023-01-13T08:29:39.075Z,7.3
2023-01-13T08:34:39.069Z,7.3
2023-01-13T08:39:39.104Z,7.4
2023-01-13T08:44:39.070Z,7.5
2023-01-13T08:49:39.072Z,7.5
2023-01-13T08:54:39.085Z,7.5
2023-01-13T08:59:39.098Z,7.4
2023-01-13T09:04:39.182Z,7.4
2023-01-13T09:09:39.098Z,7.4
2023-01-13T09:14:39.093Z,7.3
2023-01-13T09:19:39.091Z,7.2
2023-01-13T09:24:39.099Z,7.1
2023-01-13T09:29:39.115Z,7.0
2023-01-13T09:34:39.113Z,6.9
2023-01-13T09:39:39.118Z,6.9
2023-01-13T09:44:39.114Z,6.9
2023-01-13T09:49:39.122Z,7.0
2023-01-13T09:54:39.115Z,7.0
2023-01-13T09:59:39.126Z,7.1
2023-01-13T10:04:39.137Z,7.2
2023-01-13T10:09:39.157Z,7.2
2023-01-13T10:14:39.129Z,7.2
2023-01-13T10:19:39.131Z,7.2
2023-01-13T10:24:39.143Z,7.2
2023-01-13T10:29:39.139Z,7.3
2023-01-13T10:34:39.130Z,7.2
2023-01-13T10:39:39.148Z,7.1
2023-01-13T10:44:39.159Z,7.1
2023-01-13T10:49:39.139Z,6.9
2023-01-13T10:54:39.146Z,6.8
2023-01-13T10:59:39.180Z,6.9
2023-01-13T11:04:39.212Z,6.9
2023-01-13T11:09:39.176Z,7.1
2023-01-13T11:14:39.183Z,7.2
2023-01-13T11:19:39.174Z,7.2
2023-01-13T11:24:39.170Z,7.2
2023-01-13T11:29:39.190Z,7.3
2023-01-13T11:34:39.174Z,7.4
2023-01-13T11:39:39.193Z,7.4
2023-01-13T11:44:39.177Z,7.5
2023-01-13T11:49:39.176Z,7.5
2023-01-13T11:54:39.183Z,7.6
2023-01-13T11:59:39.195Z,7.6
2023-01-13T12:04:39.192Z,7.7
2023-01-13T12:09:39.216Z,7.6
2023-01-13T12:14:39.193Z,7.6
2023-01-13T12:19:39.197Z,7.7
2023-01-13T12:24:39.199Z,7.7
2023-01-13T12:29:39.222Z,7.7
2023-01-13T12:34:39.220Z,7.7
2023-01-13T12:39:39.221Z,7.7
2023-01-13T12:44:39.215Z,7.8
2023-01-13T12:49:39.221Z,7.8
2023-01-13T12:54:39.214Z,7.8
2023-01-13T12:59:39.235Z,7.9
2023-01-13T13:04:39.217Z,7.9
2023-01-13T13:09:39.264Z,8.0
2023-01-13T13:14:39.321Z,8.0
2023-01-13T13:19:39.231Z,8.1
2023-01-13T13:24:39.232Z,8.1
2023-01-13T13:29:39.252Z,8.2
2023-01-13T13:34:39.235Z,8.2
2023-01-13T13:39:40.031Z,8.3
2023-01-13T13:44:39.240Z,8.3
2023-01-13T13:49:39.248Z,8.3
2023-01-13T13:54:39.249Z,8.2
2023-01-13T13:59:39.260Z,8.3
2023-01-13T14:04:39.308Z,8.4
2023-01-13T14:09:39.242Z,8.4
2023-01-13T14:14:39.213Z,8.4
2023-01-13T14:19:39.218Z,8.5
2023-01-13T14:24:39.207Z,8.5
2023-01-13T14:29:39.214Z,8.4
2023-01-13T14:34:39.213Z,8.4
2023-01-13T14:39:39.224Z,8.4
2023-01-13T14:44:39.228Z,8.4
2023-01-13T14:49:39.201Z,8.4
2023-01-13T14:54:39.210Z,8.4
2023-01-13T14:59:39.217Z,8.4
2023-01-13T15:04:39.213Z,8.3
2023-01-13T15:09:39.255Z,8.3
2023-01-13T15:14:39.216Z,8.2
2023-01-13T15:19:39.217Z,8.1
2023-01-13T15:24:39.225Z,8.1
2023-01-13T15:29:39.392Z,8.0
2023-01-13T15:34:39.222Z,7.9
2023-01-13T15:39:39.274Z,7.9
2023-01-13T15:44:39.255Z,7.9
2023-01-13T15:49:39.229Z,8.0
2023-01-13T15:54:39.237Z,8.0
2023-01-13T15:59:39.242Z,8.1
2023-01-13T16:04:39.255Z,8.1
2023-01-13T16:09:39.486Z,8.1
2023-01-13T16:14:39.252Z,8.0
2023-01-13T16:19:39.267Z,7.9
2023-01-13T16:24:39.277Z,8.0
2023-01-13T16:29:39.302Z,8.0
2023-01-13T16:34:39.300Z,8.0
2023-01-13T16:39:39.334Z,8.1
2023-01-13T16:44:39.360Z,7.9
2023-01-13T16:49:39.338Z,7.8
2023-01-13T16:54:39.343Z,7.8
2023-01-13T16:59:39.348Z,7.8
2023-01-13T17:04:39.357Z,7.7
2023-01-13T17:09:39.379Z,7.8
2023-01-13T17:14:39.362Z,7.7
2023-01-13T17:19:39.366Z,7.7
2023-01-13T17:24:39.375Z,7.7
2023-01-13T17:29:39.388Z,7.6
2023-01-13T17:34:39.390Z,7.6
2023-01-13T17:39:39.395Z,7.5
2023-01-13T17:44:39.391Z,7.4
2023-01-13T17:49:39.380Z,7.3
2023-01-13T17:54:39.380Z,7.2
2023-01-13T17:59:39.390Z,7.1
2023-01-13T18:04:39.379Z,7.1
2023-01-13T18:09:39.411Z,7.1
2023-01-13T18:14:39.399Z,7.0
2023-01-13T18:19:39.388Z,7.0
2023-01-13T18:24:39.394Z,7.0
2023-01-13T18:29:39.398Z,7.0
2023-01-13T18:34:39.432Z,7.1
2023-01-13T18:39:39.431Z,7.1
2023-01-13T18:44:39.407Z,6.9
2023-01-13T18:49:39.409Z,6.9
2023-01-13T18:54:39.410Z,6.8
2023-01-13T18:59:39.422Z,6.9
2023-01-13T19:04:39.415Z,6.8
2023-01-13T19:09:39.453Z,6.7
2023-01-13T19:14:39.421Z,6.6
2023-01-13T19:19:39.414Z,6.5
2023-01-13T19:24:39.429Z,6.5
2023-01-13T19:29:45.708Z,6.5
2023-01-13T19:34:39.447Z,6.4
2023-01-13T19:39:39.453Z,6.4
2023-01-13T19:44:39.452Z,6.4
2023-01-13T19:49:39.445Z,6.3
2023-01-13T19:54:39.455Z,6.3
2023-01-13T19:59:39.529Z,6.3
2023-01-13T20:04:39.461Z,6.3
2023-01-13T20:09:39.507Z,6.3
2023-01-13T20:14:39.449Z,6.4
2023-01-13T20:19:39.465Z,6.4
2023-01-13T20:24:39.483Z,6.4
2023-01-13T20:29:39.476Z,6.6
2023-01-13T20:34:39.476Z,6.6
2023-01-13T20:39:39.489Z,6.6
2023-01-13T20:44:39.487Z,6.7
2023-01-13T20:49:39.482Z,6.7
2023-01-13T20:54:39.511Z,6.7
2023-01-13T20:59:39.526Z,6.6
2023-01-13T21:04:39.488Z,6.6
2023-01-13T21:09:39.527Z,6.7
2023-01-13T21:14:39.491Z,6.7
2023-01-13T21:19:39.488Z,6.7
2023-01-13T21:24:39.499Z,6.6
2023-01-13T21:29:39.506Z,6.5
2023-01-13T21:34:39.496Z,6.6
2023-01-13T21:39:39.521Z,6.5
2023-01-13T21:44:39.521Z,6.5
2023-01-13T21:49:39.509Z,6.6
2023-01-13T21:54:39.517Z,6.6
2023-01-13T21:59:39.934Z,6.6
2023-01-13T22:04:39.524Z,6.6
2023-01-13T22:09:39.533Z,6.5
2023-01-13T22:14:39.536Z,6.6
2023-01-13T22:19:39.526Z,6.6
2023-01-13T22:24:39.526Z,6.7
2023-01-13T22:29:39.545Z,6.7
2023-01-13T22:34:39.539Z,6.7
2023-01-13T22:39:39.572Z,6.8
2023-01-13T22:44:39.549Z,6.8
2023-01-13T22:49:39.554Z,6.8
2023-01-13T22:54:39.551Z,6.9
2023-01-13T22:59:39.561Z,6.9
2023-01-13T23:04:39.593Z,6.8
2023-01-13T23:09:39.578Z,6.8
2023-01-13T23:14:39.571Z,6.7
2023-01-13T23:19:39.559Z,6.7
2023-01-13T23:24:39.575Z,6.5
2023-01-13T23:29:39.614Z,6.6
2023-01-13T23:34:39.592Z,6.6
2023-01-13T23:39:39.600Z,6.5
2023-01-13T23:44:39.582Z,6.6
2023-01-13T23:49:39.584Z,6.6
2023-01-13T23:54:39.604Z,6.5
2023-01-13T23:59:39.655Z,6.4
